sensor_id;sensor_type;location;lat;lon;timestamp;pressure;altitude;pressure_sealevel;temperature;humidity
18821;BME280;9539;59.332;18.034;2023-09-30T00:01:09;100072.75;;;23.86;100.00
18821;BME280;9539;59.332;18.034;2023-09-30T00:03:31;100083.19;;;24.11;100.00
18821;BME280;9539;59.332;18.034;2023-09-30T00:05:54;100082.41;;;24.17;100.00
18821;BME280;9539;59.332;18.034;2023-09-30T00:08:16;100088.16;;;23.07;100.00
18821;BME280;9539;59.332;18.034;2023-09-30T00:10:39;100079.47;;;23.48;100.00
18821;BME280;9539;59.332;18.034;2023-09-30T00:13:01;100069.03;;;23.66;100.00
18821;BME280;9539;59.332;18.034;2023-09-30T00:15:23;100075.53;;;23.93;100.00
18821;BME280;9539;59.332;18.034;2023-09-30T00:17:45;100087.25;;;24.00;100.00
18821;BME280;9539;59.332;18.034;2023-09-30T00:20:08;100075.81;;;23.98;100.00
18821;BME280;9539;59.332;18.034;2023-09-30T00:22:30;100081.19;;;24.19;100.00
18821;BME280;9539;59.332;18.034;2023-09-30T00:24:53;100086.28;;;24.08;100.00
18821;BME280;9539;59.332;18.034;2023-09-30T00:27:16;100079.59;;;23.82;100.00
18821;BME280;9539;59.332;18.034;2023-09-30T00:29:38;100081.00;;;24.00;100.00
18821;BME280;9539;59.332;18.034;2023-09-30T00:32:00;100078.03;;;23.31;100.00
18821;BME280;9539;59.332;18.034;2023-09-30T00:34:22;100080.13;;;23.50;100.00
18821;BME280;9539;59.332;18.034;2023-09-30T00:36:44;100081.22;;;23.56;100.00
18821;BME280;9539;59.332;18.034;2023-09-30T00:39:07;100085.09;;;23.68;100.00
18821;BME280;9539;59.332;18.034;2023-09-30T00:41:29;100084.19;;;23.61;100.00
18821;BME280;9539;59.332;18.034;2023-09-30T00:43:53;100079.63;;;23.46;100.00
18821;BME280;9539;59.332;18.034;2023-09-30T00:46:25;100074.81;;;23.06;100.00
18821;BME280;9539;59.332;18.034;2023-09-30T00:48:48;100081.66;;;23.38;100.00
18821;BME280;9539;59.332;18.034;2023-09-30T00:51:10;100081.25;;;23.20;100.00
18821;BME280;9539;59.332;18.034;2023-09-30T00:53:32;100077.91;;;23.39;100.00
18821;BME280;9539;59.332;18.034;2023-09-30T00:55:55;100075.97;;;23.33;100.00
18821;BME280;9539;59.332;18.034;2023-09-30T00:58:18;100080.94;;;23.15;100.00
18821;BME280;9539;59.332;18.034;2023-09-30T01:00:41;100072.88;;;23.00;100.00
18821;BME280;9539;59.332;18.034;2023-09-30T01:03:04;100078.97;;;23.23;100.00
18821;BME280;9539;59.332;18.034;2023-09-30T01:05:27;100087.00;;;23.17;100.00
18821;BME280;9539;59.332;18.034;2023-09-30T01:07:48;100073.56;;;23.23;100.00
18821;BME280;9539;59.332;18.034;2023-09-30T01:10:11;100088.16;;;23.07;100.00
18821;BME280;9539;59.332;18.034;2023-09-30T01:12:33;100082.88;;;23.21;100.00
18821;BME280;9539;59.332;18.034;2023-09-30T01:14:57;100090.31;;;23.12;100.00
18821;BME280;9539;59.332;18.034;2023-09-30T01:17:21;100084.06;;;22.53;100.00
18821;BME280;9539;59.332;18.034;2023-09-30T01:19:43;100086.72;;;23.26;100.00
18821;BME280;9539;59.332;18.034;2023-09-30T01:22:06;100088.09;;;22.86;100.00
18821;BME280;9539;59.332;18.034;2023-09-30T01:24:30;100085.50;;;23.29;100.00
18821;BME280;9539;59.332;18.034;2023-09-30T01:26:52;100092.50;;;22.87;100.00
18821;BME280;9539;59.332;18.034;2023-09-30T01:29:14;100102.16;;;23.47;100.00
18821;BME280;9539;59.332;18.034;2023-09-30T01:31:37;100095.44;;;23.58;100.00
18821;BME280;9539;59.332;18.034;2023-09-30T01:33:59;100110.41;;;23.39;100.00
18821;BME280;9539;59.332;18.034;2023-09-30T01:36:21;100108.69;;;22.58;100.00
18821;BME280;9539;59.332;18.034;2023-09-30T01:38:44;100106.59;;;22.30;100.00
18821;BME280;9539;59.332;18.034;2023-09-30T01:41:06;100106.91;;;22.65;100.00
18821;BME280;9539;59.332;18.034;2023-09-30T01:43:28;100079.19;;;22.19;100.00
18821;BME280;9539;59.332;18.034;2023-09-30T01:45:50;100110.03;;;22.77;100.00
18821;BME280;9539;59.332;18.034;2023-09-30T01:48:12;100115.31;;;22.70;100.00
18821;BME280;9539;59.332;18.034;2023-09-30T01:50:34;100116.44;;;22.46;100.00
18821;BME280;9539;59.332;18.034;2023-09-30T01:52:56;100113.84;;;22.67;100.00
18821;BME280;9539;59.332;18.034;2023-09-30T01:55:19;100111.91;;;22.24;100.00
18821;BME280;9539;59.332;18.034;2023-09-30T01:57:41;100121.09;;;22.00;100.00
18821;BME280;9539;59.332;18.034;2023-09-30T02:00:04;100118.59;;;21.68;100.00
18821;BME280;9539;59.332;18.034;2023-09-30T02:02:26;100127.72;;;21.44;100.00
18821;BME280;9539;59.332;18.034;2023-09-30T02:04:48;100109.44;;;21.77;100.00
18821;BME280;9539;59.332;18.034;2023-09-30T02:07:10;100128.63;;;22.05;100.00
18821;BME280;9539;59.332;18.034;2023-09-30T02:09:32;100115.72;;;21.46;100.00
18821;BME280;9539;59.332;18.034;2023-09-30T02:11:55;100111.31;;;21.45;100.00
18821;BME280;9539;59.332;18.034;2023-09-30T02:14:17;100118.47;;;21.38;100.00
18821;BME280;9539;59.332;18.034;2023-09-30T02:16:38;100134.56;;;21.54;100.00
18821;BME280;9539;59.332;18.034;2023-09-30T02:19:00;100137.38;;;21.38;100.00
18821;BME280;9539;59.332;18.034;2023-09-30T02:21:23;100137.50;;;21.45;100.00
18821;BME280;9539;59.332;18.034;2023-09-30T02:23:45;100144.38;;;22.01;100.00
18821;BME280;9539;59.332;18.034;2023-09-30T02:26:08;100145.97;;;21.87;100.00
18821;BME280;9539;59.332;18.034;2023-09-30T02:28:31;100149.19;;;21.37;100.00
18821;BME280;9539;59.332;18.034;2023-09-30T02:30:54;100144.84;;;21.82;100.00
18821;BME280;9539;59.332;18.034;2023-09-30T02:33:16;100151.94;;;21.21;100.00
18821;BME280;9539;59.332;18.034;2023-09-30T02:38:00;100154.13;;;21.57;100.00
18821;BME280;9539;59.332;18.034;2023-09-30T02:40:23;100159.03;;;22.07;99.49
18821;BME280;9539;59.332;18.034;2023-09-30T02:42:46;100159.00;;;21.30;100.00
18821;BME280;9539;59.332;18.034;2023-09-30T02:45:10;100159.81;;;21.62;100.00
18821;BME280;9539;59.332;18.034;2023-09-30T02:47:33;100160.03;;;21.52;100.00
18821;BME280;9539;59.332;18.034;2023-09-30T02:49:57;100154.72;;;20.97;100.00
18821;BME280;9539;59.332;18.034;2023-09-30T02:52:19;100166.38;;;21.36;100.00
18821;BME280;9539;59.332;18.034;2023-09-30T02:54:41;100162.44;;;21.08;100.00
18821;BME280;9539;59.332;18.034;2023-09-30T02:57:03;100162.75;;;21.13;100.00
18821;BME280;9539;59.332;18.034;2023-09-30T02:59:25;100158.16;;;21.61;100.00
18821;BME280;9539;59.332;18.034;2023-09-30T03:01:49;100165.00;;;21.71;100.00
18821;BME280;9539;59.332;18.034;2023-09-30T03:04:10;100161.22;;;20.71;100.00
18821;BME280;9539;59.332;18.034;2023-09-30T03:06:33;100157.53;;;21.11;100.00
18821;BME280;9539;59.332;18.034;2023-09-30T03:08:55;100165.69;;;20.87;100.00
18821;BME280;9539;59.332;18.034;2023-09-30T03:11:17;100170.63;;;21.31;100.00
18821;BME280;9539;59.332;18.034;2023-09-30T03:13:40;100164.28;;;21.07;100.00
18821;BME280;9539;59.332;18.034;2023-09-30T03:16:03;100170.94;;;21.36;100.00
18821;BME280;9539;59.332;18.034;2023-09-30T03:18:26;100167.50;;;21.50;100.00
18821;BME280;9539;59.332;18.034;2023-09-30T03:20:48;100169.50;;;21.79;100.00
18821;BME280;9539;59.332;18.034;2023-09-30T03:23:11;100149.34;;;21.36;100.00
18821;BME280;9539;59.332;18.034;2023-09-30T03:25:34;100153.69;;;21.45;100.00
18821;BME280;9539;59.332;18.034;2023-09-30T03:27:56;100160.72;;;21.54;100.00
18821;BME280;9539;59.332;18.034;2023-09-30T03:30:18;100166.44;;;21.82;100.00
18821;BME280;9539;59.332;18.034;2023-09-30T03:32:42;100155.09;;;21.33;100.00
18821;BME280;9539;59.332;18.034;2023-09-30T03:35:04;100159.75;;;21.16;100.00
18821;BME280;9539;59.332;18.034;2023-09-30T03:37:27;100164.63;;;21.74;100.00
18821;BME280;9539;59.332;18.034;2023-09-30T03:39:49;100162.84;;;22.12;99.72
18821;BME280;9539;59.332;18.034;2023-09-30T03:42:11;100161.41;;;21.25;100.00
18821;BME280;9539;59.332;18.034;2023-09-30T03:44:32;100152.91;;;20.89;100.00
18821;BME280;9539;59.332;18.034;2023-09-30T03:46:54;100156.72;;;21.03;100.00
18821;BME280;9539;59.332;18.034;2023-09-30T03:49:17;100155.19;;;21.47;100.00
18821;BME280;9539;59.332;18.034;2023-09-30T03:51:42;100157.09;;;21.70;100.00
18821;BME280;9539;59.332;18.034;2023-09-30T03:54:04;100162.56;;;21.53;100.00
18821;BME280;9539;59.332;18.034;2023-09-30T03:56:26;100164.97;;;22.02;98.15
18821;BME280;9539;59.332;18.034;2023-09-30T03:58:48;100165.44;;;21.52;100.00
18821;BME280;9539;59.332;18.034;2023-09-30T04:01:10;100165.22;;;21.39;99.83
18821;BME280;9539;59.332;18.034;2023-09-30T04:03:33;100171.91;;;21.04;100.00
18821;BME280;9539;59.332;18.034;2023-09-30T04:05:57;100161.41;;;21.25;100.00
18821;BME280;9539;59.332;18.034;2023-09-30T04:08:20;100176.06;;;20.67;100.00
18821;BME280;9539;59.332;18.034;2023-09-30T04:10:43;100173.38;;;20.67;100.00
18821;BME280;9539;59.332;18.034;2023-09-30T04:13:05;100178.38;;;21.34;100.00
18821;BME280;9539;59.332;18.034;2023-09-30T04:15:27;100181.31;;;21.08;100.00
18821;BME280;9539;59.332;18.034;2023-09-30T04:17:49;100180.03;;;20.88;100.00
18821;BME280;9539;59.332;18.034;2023-09-30T04:20:11;100173.06;;;21.18;100.00
18821;BME280;9539;59.332;18.034;2023-09-30T04:22:45;100174.41;;;20.50;100.00
18821;BME280;9539;59.332;18.034;2023-09-30T04:25:10;100186.00;;;21.14;100.00
18821;BME280;9539;59.332;18.034;2023-09-30T04:27:32;100179.41;;;20.78;100.00
18821;BME280;9539;59.332;18.034;2023-09-30T04:29:54;100181.25;;;21.32;99.03
18821;BME280;9539;59.332;18.034;2023-09-30T04:32:16;100181.28;;;21.24;99.48
18821;BME280;9539;59.332;18.034;2023-09-30T04:34:38;100191.84;;;21.42;97.97
18821;BME280;9539;59.332;18.034;2023-09-30T04:37:00;100190.09;;;21.49;97.72
18821;BME280;9539;59.332;18.034;2023-09-30T04:39:22;100185.97;;;21.38;97.94
18821;BME280;9539;59.332;18.034;2023-09-30T04:41:45;100183.50;;;21.12;98.37
18821;BME280;9539;59.332;18.034;2023-09-30T04:44:07;100192.22;;;21.31;97.72
18821;BME280;9539;59.332;18.034;2023-09-30T04:46:30;100187.66;;;21.31;97.32
18821;BME280;9539;59.332;18.034;2023-09-30T04:48:52;100193.72;;;21.33;96.99
18821;BME280;9539;59.332;18.034;2023-09-30T04:51:14;100187.78;;;20.91;98.62
18821;BME280;9539;59.332;18.034;2023-09-30T04:53:38;100189.19;;;20.79;99.45
18821;BME280;9539;59.332;18.034;2023-09-30T04:56:00;100183.47;;;20.49;99.53
18821;BME280;9539;59.332;18.034;2023-09-30T04:58:23;100189.03;;;20.56;99.06
18821;BME280;9539;59.332;18.034;2023-09-30T05:00:45;100193.22;;;20.74;98.96
18821;BME280;9539;59.332;18.034;2023-09-30T05:03:07;100200.66;;;20.64;98.98
18821;BME280;9539;59.332;18.034;2023-09-30T05:05:29;100195.88;;;20.91;97.32
18821;BME280;9539;59.332;18.034;2023-09-30T05:07:50;100195.09;;;20.17;99.44
18821;BME280;9539;59.332;18.034;2023-09-30T05:10:12;100195.28;;;20.56;99.46
18821;BME280;9539;59.332;18.034;2023-09-30T05:12:36;100198.97;;;20.71;97.76
18821;BME280;9539;59.332;18.034;2023-09-30T05:15:00;100190.81;;;20.96;96.94
18821;BME280;9539;59.332;18.034;2023-09-30T05:17:22;100194.28;;;20.33;99.68
18821;BME280;9539;59.332;18.034;2023-09-30T05:19:44;100197.66;;;20.51;99.54
18821;BME280;9539;59.332;18.034;2023-09-30T05:22:06;100200.81;;;20.71;98.56
18821;BME280;9539;59.332;18.034;2023-09-30T05:24:28;100205.50;;;20.77;97.19
18821;BME280;9539;59.332;18.034;2023-09-30T05:26:50;100198.75;;;20.89;96.30
18821;BME280;9539;59.332;18.034;2023-09-30T05:29:11;100209.22;;;20.84;97.53
18821;BME280;9539;59.332;18.034;2023-09-30T05:31:35;100199.13;;;20.78;97.38
18821;BME280;9539;59.332;18.034;2023-09-30T05:33:57;100195.75;;;20.76;97.27
18821;BME280;9539;59.332;18.034;2023-09-30T05:36:19;100199.66;;;20.73;97.01
18821;BME280;9539;59.332;18.034;2023-09-30T05:38:41;100198.97;;;20.15;99.97
18821;BME280;9539;59.332;18.034;2023-09-30T05:41:03;100207.09;;;20.39;98.33
18821;BME280;9539;59.332;18.034;2023-09-30T05:43:26;100210.06;;;20.77;97.08
18821;BME280;9539;59.332;18.034;2023-09-30T05:45:48;100198.91;;;20.88;96.75
18821;BME280;9539;59.332;18.034;2023-09-30T05:48:16;100199.25;;;21.40;94.36
18821;BME280;9539;59.332;18.034;2023-09-30T05:50:38;100211.06;;;20.75;97.25
18821;BME280;9539;59.332;18.034;2023-09-30T05:53:00;100198.28;;;20.69;97.59
18821;BME280;9539;59.332;18.034;2023-09-30T05:55:22;100215.66;;;20.51;97.55
18821;BME280;9539;59.332;18.034;2023-09-30T05:57:45;100213.81;;;20.67;96.67
18821;BME280;9539;59.332;18.034;2023-09-30T06:00:11;100218.53;;;20.49;97.36
18821;BME280;9539;59.332;18.034;2023-09-30T06:02:35;100221.75;;;20.61;97.13
18821;BME280;9539;59.332;18.034;2023-09-30T06:04:58;100218.53;;;20.65;97.74
18821;BME280;9539;59.332;18.034;2023-09-30T06:07:21;100215.59;;;20.99;96.28
18821;BME280;9539;59.332;18.034;2023-09-30T06:09:43;100224.16;;;21.19;95.86
18821;BME280;9539;59.332;18.034;2023-09-30T06:12:05;100226.06;;;20.86;96.77
18821;BME280;9539;59.332;18.034;2023-09-30T06:14:27;100222.63;;;21.25;96.21
18821;BME280;9539;59.332;18.034;2023-09-30T06:16:51;100233.91;;;21.20;95.42
18821;BME280;9539;59.332;18.034;2023-09-30T06:19:13;100235.97;;;20.94;96.15
18821;BME280;9539;59.332;18.034;2023-09-30T06:21:36;100227.06;;;20.93;95.42
18821;BME280;9539;59.332;18.034;2023-09-30T06:24:00;100226.63;;;20.33;98.83
18821;BME280;9539;59.332;18.034;2023-09-30T06:26:22;100231.41;;;21.10;96.28
18821;BME280;9539;59.332;18.034;2023-09-30T06:28:45;100232.84;;;20.50;98.75
18821;BME280;9539;59.332;18.034;2023-09-30T06:31:08;100234.03;;;20.47;99.39
18821;BME280;9539;59.332;18.034;2023-09-30T06:33:30;100233.94;;;21.12;96.13
18821;BME280;9539;59.332;18.034;2023-09-30T06:35:52;100232.25;;;21.03;96.98
18821;BME280;9539;59.332;18.034;2023-09-30T06:38:16;100233.00;;;20.64;98.58
18821;BME280;9539;59.332;18.034;2023-09-30T06:40:38;100237.19;;;20.75;96.96
18821;BME280;9539;59.332;18.034;2023-09-30T06:43:03;100239.81;;;21.24;96.51
18821;BME280;9539;59.332;18.034;2023-09-30T06:45:25;100227.53;;;21.05;96.65
18821;BME280;9539;59.332;18.034;2023-09-30T06:47:47;100227.06;;;21.79;93.53
18821;BME280;9539;59.332;18.034;2023-09-30T06:50:10;100227.06;;;21.48;94.87
18821;BME280;9539;59.332;18.034;2023-09-30T06:52:33;100220.78;;;21.01;95.89
18821;BME280;9539;59.332;18.034;2023-09-30T06:54:56;100220.78;;;21.56;94.60
18821;BME280;9539;59.332;18.034;2023-09-30T06:57:18;100223.38;;;21.72;93.07
18821;BME280;9539;59.332;18.034;2023-09-30T06:59:40;100226.00;;;21.88;92.87
18821;BME280;9539;59.332;18.034;2023-09-30T07:02:02;100211.84;;;21.78;91.74
18821;BME280;9539;59.332;18.034;2023-09-30T07:04:24;100213.53;;;21.79;92.85
18821;BME280;9539;59.332;18.034;2023-09-30T07:06:46;100223.00;;;21.83;92.42
18821;BME280;9539;59.332;18.034;2023-09-30T07:09:08;100223.25;;;22.19;90.91
18821;BME280;9539;59.332;18.034;2023-09-30T07:11:32;100217.03;;;22.19;90.90
18821;BME280;9539;59.332;18.034;2023-09-30T07:13:54;100215.47;;;21.71;92.42
18821;BME280;9539;59.332;18.034;2023-09-30T07:16:15;100217.09;;;21.80;92.59
18821;BME280;9539;59.332;18.034;2023-09-30T07:18:37;100221.06;;;21.92;92.33
18821;BME280;9539;59.332;18.034;2023-09-30T07:20:59;100207.81;;;21.51;93.64
18821;BME280;9539;59.332;18.034;2023-09-30T07:23:22;100211.28;;;21.91;92.14
18821;BME280;9539;59.332;18.034;2023-09-30T07:25:44;100217.34;;;21.31;94.45
18821;BME280;9539;59.332;18.034;2023-09-30T07:28:07;100212.44;;;20.55;98.40
18821;BME280;9539;59.332;18.034;2023-09-30T07:30:32;100205.38;;;22.18;91.65
18821;BME280;9539;59.332;18.034;2023-09-30T07:32:54;100220.91;;;22.77;88.70
18821;BME280;9539;59.332;18.034;2023-09-30T07:35:16;100216.44;;;22.09;90.76
18821;BME280;9539;59.332;18.034;2023-09-30T07:37:38;100221.47;;;21.58;92.20
18821;BME280;9539;59.332;18.034;2023-09-30T07:40:00;100207.28;;;21.56;92.94
18821;BME280;9539;59.332;18.034;2023-09-30T07:42:22;100214.03;;;22.14;89.95
18821;BME280;9539;59.332;18.034;2023-09-30T07:44:45;100213.72;;;22.09;88.99
18821;BME280;9539;59.332;18.034;2023-09-30T07:47:07;100206.00;;;23.25;85.82
18821;BME280;9539;59.332;18.034;2023-09-30T07:49:30;100203.03;;;23.49;84.18
18821;BME280;9539;59.332;18.034;2023-09-30T07:51:52;100198.84;;;24.25;80.96
18821;BME280;9539;59.332;18.034;2023-09-30T07:54:14;100203.28;;;23.90;78.29
18821;BME280;9539;59.332;18.034;2023-09-30T07:56:37;100195.16;;;23.90;79.94
18821;BME280;9539;59.332;18.034;2023-09-30T07:58:59;100206.81;;;25.10;76.26
18821;BME280;9539;59.332;18.034;2023-09-30T08:01:23;100198.94;;;25.22;73.83
18821;BME280;9539;59.332;18.034;2023-09-30T08:03:45;100202.16;;;25.38;71.53
18821;BME280;9539;59.332;18.034;2023-09-30T08:06:08;100201.28;;;25.31;71.45
18821;BME280;9539;59.332;18.034;2023-09-30T08:08:30;100203.78;;;24.92;73.87
18821;BME280;9539;59.332;18.034;2023-09-30T08:10:51;100204.66;;;24.43;72.85
18821;BME280;9539;59.332;18.034;2023-09-30T08:13:16;100201.47;;;24.61;73.80
18821;BME280;9539;59.332;18.034;2023-09-30T08:15:38;100212.00;;;24.07;74.83
18821;BME280;9539;59.332;18.034;2023-09-30T08:18:03;100211.38;;;24.47;73.17
18821;BME280;9539;59.332;18.034;2023-09-30T08:20:26;100203.72;;;23.94;74.07
18821;BME280;9539;59.332;18.034;2023-09-30T08:22:48;100205.69;;;24.42;74.61
18821;BME280;9539;59.332;18.034;2023-09-30T08:25:10;100203.47;;;24.80;70.63
18821;BME280;9539;59.332;18.034;2023-09-30T08:27:32;100195.66;;;24.70;71.16
18821;BME280;9539;59.332;18.034;2023-09-30T08:29:53;100215.63;;;24.14;72.15
18821;BME280;9539;59.332;18.034;2023-09-30T08:32:15;100216.72;;;25.24;69.73
18821;BME280;9539;59.332;18.034;2023-09-30T08:34:38;100202.91;;;24.63;69.80
18821;BME280;9539;59.332;18.034;2023-09-30T08:37:00;100202.34;;;25.37;67.79
18821;BME280;9539;59.332;18.034;2023-09-30T08:39:22;100207.44;;;25.05;67.06
18821;BME280;9539;59.332;18.034;2023-09-30T08:41:45;100207.50;;;25.60;65.15
18821;BME280;9539;59.332;18.034;2023-09-30T08:44:06;100207.63;;;26.06;64.08
18821;BME280;9539;59.332;18.034;2023-09-30T08:46:30;100218.56;;;26.78;60.20
18821;BME280;9539;59.332;18.034;2023-09-30T08:48:53;100212.91;;;26.27;59.34
18821;BME280;9539;59.332;18.034;2023-09-30T08:51:19;100226.53;;;26.93;58.59
18821;BME280;9539;59.332;18.034;2023-09-30T08:53:42;100224.84;;;26.59;59.38
18821;BME280;9539;59.332;18.034;2023-09-30T08:56:04;100218.56;;;26.98;55.91
18821;BME280;9539;59.332;18.034;2023-09-30T08:58:30;100218.69;;;24.75;62.16
18821;BME280;9539;59.332;18.034;2023-09-30T09:00:52;100218.50;;;26.12;58.31
18821;BME280;9539;59.332;18.034;2023-09-30T09:03:15;100209.66;;;24.67;63.70
18821;BME280;9539;59.332;18.034;2023-09-30T09:05:37;100217.00;;;25.90;61.92
18821;BME280;9539;59.332;18.034;2023-09-30T09:08:00;100218.88;;;25.83;60.88
18821;BME280;9539;59.332;18.034;2023-09-30T09:10:22;100216.69;;;25.59;62.00
18821;BME280;9539;59.332;18.034;2023-09-30T09:12:55;100220.50;;;24.67;65.69
18821;BME280;9539;59.332;18.034;2023-09-30T09:15:22;100214.50;;;24.51;68.11
18821;BME280;9539;59.332;18.034;2023-09-30T09:17:45;100214.25;;;24.67;67.16
18821;BME280;9539;59.332;18.034;2023-09-30T09:20:08;100219.25;;;24.21;70.55
18821;BME280;9539;59.332;18.034;2023-09-30T09:22:38;100226.47;;;24.14;70.45
18821;BME280;9539;59.332;18.034;2023-09-30T09:25:01;100222.94;;;24.35;69.11
18821;BME280;9539;59.332;18.034;2023-09-30T09:27:23;100223.78;;;23.78;72.48
18821;BME280;9539;59.332;18.034;2023-09-30T09:29:45;100220.25;;;23.77;73.44
18821;BME280;9539;59.332;18.034;2023-09-30T09:32:10;100218.41;;;24.20;70.96
18821;BME280;9539;59.332;18.034;2023-09-30T09:34:32;100213.31;;;24.32;69.67
18821;BME280;9539;59.332;18.034;2023-09-30T09:36:54;100217.47;;;24.84;66.83
18821;BME280;9539;59.332;18.034;2023-09-30T09:39:29;100202.16;;;24.97;64.98
18821;BME280;9539;59.332;18.034;2023-09-30T09:41:53;100213.59;;;25.75;63.31
18821;BME280;9539;59.332;18.034;2023-09-30T09:44:19;100217.97;;;26.50;59.03
18821;BME280;9539;59.332;18.034;2023-09-30T09:46:42;100222.75;;;26.61;57.38
18821;BME280;9539;59.332;18.034;2023-09-30T09:49:04;100221.53;;;26.57;57.93
18821;BME280;9539;59.332;18.034;2023-09-30T09:51:26;100225.00;;;26.05;59.12
18821;BME280;9539;59.332;18.034;2023-09-30T09:53:51;100220.75;;;25.41;59.47
18821;BME280;9539;59.332;18.034;2023-09-30T09:56:13;100217.38;;;24.43;64.61
18821;BME280;9539;59.332;18.034;2023-09-30T09:58:37;100224.09;;;24.75;63.33
18821;BME280;9539;59.332;18.034;2023-09-30T10:01:01;100221.38;;;25.02;62.79
18821;BME280;9539;59.332;18.034;2023-09-30T10:03:23;100224.41;;;25.14;61.52
18821;BME280;9539;59.332;18.034;2023-09-30T10:05:46;100227.31;;;25.13;61.12
18821;BME280;9539;59.332;18.034;2023-09-30T10:08:13;100225.00;;;24.82;61.86
18821;BME280;9539;59.332;18.034;2023-09-30T10:10:37;100220.91;;;25.27;60.24
18821;BME280;9539;59.332;18.034;2023-09-30T10:13:00;100222.91;;;24.84;61.45
18821;BME280;9539;59.332;18.034;2023-09-30T10:15:39;100192.44;;;25.57;57.38
18821;BME280;9539;59.332;18.034;2023-09-30T10:18:04;100233.44;;;26.30;55.97
18821;BME280;9539;59.332;18.034;2023-09-30T10:20:28;100232.81;;;26.54;54.53
18821;BME280;9539;59.332;18.034;2023-09-30T10:23:17;100249.53;;;26.84;54.38
18821;BME280;9539;59.332;18.034;2023-09-30T10:25:40;100244.94;;;26.84;53.21
18821;BME280;9539;59.332;18.034;2023-09-30T10:28:32;100243.69;;;26.34;53.97
18821;BME280;9539;59.332;18.034;2023-09-30T10:31:14;100249.06;;;26.14;55.33
18821;BME280;9539;59.332;18.034;2023-09-30T10:36:36;100235.28;;;26.22;55.77
18821;BME280;9539;59.332;18.034;2023-09-30T10:38:58;100230.88;;;26.21;55.89
18821;BME280;9539;59.332;18.034;2023-09-30T10:41:50;100221.03;;;24.84;58.90
18821;BME280;9539;59.332;18.034;2023-09-30T10:44:34;100220.16;;;26.07;56.84
18821;BME280;9539;59.332;18.034;2023-09-30T10:46:59;100220.69;;;25.63;58.20
18821;BME280;9539;59.332;18.034;2023-09-30T10:49:31;100232.28;;;25.43;59.11
18821;BME280;9539;59.332;18.034;2023-09-30T10:51:55;100229.31;;;24.76;65.76
18821;BME280;9539;59.332;18.034;2023-09-30T10:54:22;100231.81;;;24.07;72.34
18821;BME280;9539;59.332;18.034;2023-09-30T10:56:44;100229.81;;;23.59;76.31
18821;BME280;9539;59.332;18.034;2023-09-30T10:59:06;100235.56;;;23.70;75.98
18821;BME280;9539;59.332;18.034;2023-09-30T11:01:32;100239.03;;;24.00;74.69
18821;BME280;9539;59.332;18.034;2023-09-30T11:04:01;100244.56;;;23.71;76.18
18821;BME280;9539;59.332;18.034;2023-09-30T11:06:25;100254.50;;;23.85;74.73
18821;BME280;9539;59.332;18.034;2023-09-30T11:08:51;100257.72;;;23.44;77.09
18821;BME280;9539;59.332;18.034;2023-09-30T11:11:13;100266.75;;;24.17;73.66
18821;BME280;9539;59.332;18.034;2023-09-30T11:13:38;100269.41;;;24.32;72.58
18821;BME280;9539;59.332;18.034;2023-09-30T11:16:01;100266.28;;;24.77;70.57
18821;BME280;9539;59.332;18.034;2023-09-30T11:18:25;100272.13;;;25.02;68.34
18821;BME280;9539;59.332;18.034;2023-09-30T11:20:48;100266.31;;;24.84;70.29
18821;BME280;9539;59.332;18.034;2023-09-30T11:23:11;100248.78;;;24.80;70.30
18821;BME280;9539;59.332;18.034;2023-09-30T11:25:35;100257.09;;;24.78;69.68
18821;BME280;9539;59.332;18.034;2023-09-30T11:28:12;100253.56;;;24.14;73.89
18821;BME280;9539;59.332;18.034;2023-09-30T11:30:53;100250.41;;;24.10;71.86
18821;BME280;9539;59.332;18.034;2023-09-30T11:33:15;100249.31;;;24.96;69.44
18821;BME280;9539;59.332;18.034;2023-09-30T11:35:36;100260.22;;;23.75;74.42
18821;BME280;9539;59.332;18.034;2023-09-30T11:38:00;100251.97;;;24.19;73.33
18821;BME280;9539;59.332;18.034;2023-09-30T11:40:23;100241.47;;;23.95;72.49
18821;BME280;9539;59.332;18.034;2023-09-30T11:43:08;100247.22;;;24.21;72.52
18821;BME280;9539;59.332;18.034;2023-09-30T11:45:32;100238.25;;;24.42;71.81
18821;BME280;9539;59.332;18.034;2023-09-30T11:47:54;100251.75;;;24.00;73.33
18821;BME280;9539;59.332;18.034;2023-09-30T11:50:18;100243.53;;;23.93;74.22
18821;BME280;9539;59.332;18.034;2023-09-30T11:52:44;100242.72;;;24.14;72.47
18821;BME280;9539;59.332;18.034;2023-09-30T11:55:08;100251.81;;;24.91;70.65
18821;BME280;9539;59.332;18.034;2023-09-30T11:57:33;100247.63;;;25.23;69.42
18821;BME280;9539;59.332;18.034;2023-09-30T11:59:55;100251.25;;;24.53;70.50
18821;BME280;9539;59.332;18.034;2023-09-30T12:02:17;100259.72;;;24.44;70.68
18821;BME280;9539;59.332;18.034;2023-09-30T12:04:40;100242.03;;;24.97;67.07
18821;BME280;9539;59.332;18.034;2023-09-30T12:07:02;100241.56;;;24.44;67.20
18821;BME280;9539;59.332;18.034;2023-09-30T12:09:24;100246.09;;;23.80;65.58
18821;BME280;9539;59.332;18.034;2023-09-30T12:11:49;100255.00;;;24.31;63.58
18821;BME280;9539;59.332;18.034;2023-09-30T12:14:12;100242.59;;;24.01;64.61
18821;BME280;9539;59.332;18.034;2023-09-30T12:16:34;100253.19;;;23.81;64.39
18821;BME280;9539;59.332;18.034;2023-09-30T12:18:56;100252.59;;;23.64;65.22
18821;BME280;9539;59.332;18.034;2023-09-30T12:21:18;100263.50;;;23.71;64.53
18821;BME280;9539;59.332;18.034;2023-09-30T12:23:40;100264.28;;;24.37;62.67
18821;BME280;9539;59.332;18.034;2023-09-30T12:26:03;100267.47;;;24.47;62.96
18821;BME280;9539;59.332;18.034;2023-09-30T12:28:27;100259.66;;;24.37;62.42
18821;BME280;9539;59.332;18.034;2023-09-30T12:30:52;100262.13;;;24.32;62.36